Eviapetrol I — SY5401 — position and weather

sailwx.info

Track history (hours):
 
Tides and Currents Weather Stations Pressure Air Temp Water Temp Dewpoint Dewpoint Depression Visibility Wind Speed Wind Dir Waves Ship Positions

Eviapetrol I

Last reported at 2017-Feb-20 04:30 UTC. Time now 2017-Feb-21 19:06 UTC.
Position N 37°20' E 023°37'.

Length 75 m; draft 5.2 m.

Type: Tanker. MMSI: 240285000.

Date/timePositionNaut miles runAvg speedWind from/ knotsBaromVisibWave heightAir tempDewpointWater temp
2017-Feb-20 04:30N 37°20' E 023°37'9 9.9
2017-Feb-20 03:33N 37°29' E 023°34'10 9.6
2017-Feb-20 02:33N 37°38' E 023°29'9 9.2
2017-Feb-20 01:33N 37°46' E 023°25'9 9.5
2017-Feb-20 00:33N 37°56' E 023°24'8 7.8
2017-Feb-19 23:33N 38°01' E 023°31'4 3.8
2017-Feb-19 22:33N 38°02' E 023°36'0 0.0
2017-Feb-19 21:33N 38°02' E 023°36'0 0.0
2017-Feb-19 20:30N 38°02' E 023°36'0 0.0
2017-Feb-19 19:33N 38°02' E 023°36'0 0.0
2017-Feb-19 18:33N 38°02' E 023°36'0 0.0
2017-Feb-19 17:33N 38°02' E 023°36'0 0.0
2017-Feb-19 16:33N 38°02' E 023°36'0 0.0
2017-Feb-19 15:33N 38°02' E 023°36'0 0.0
2017-Feb-19 14:30N 38°02' E 023°36'0 0.0
2017-Feb-19 13:33N 38°02' E 023°36'0 0.0
2017-Feb-19 12:33N 38°02' E 023°36'0 0.0
2017-Feb-19 11:33N 38°02' E 023°36'0 0.3
2017-Feb-19 10:33N 38°01' E 023°35'2 1.9
2017-Feb-19 09:33N 38°01' E 023°33'1 0.8
2017-Feb-19 08:33N 38°02' E 023°32'0 0.0
2017-Feb-19 07:33N 38°02' E 023°32'0 0.0
2017-Feb-19 06:33N 38°02' E 023°32'0 0.0
2017-Feb-19 05:33N 38°02' E 023°32'0 0.0
2017-Feb-19 04:33N 38°02' E 023°32'0 0.0
2017-Feb-19 03:33N 38°02' E 023°32'0 0.0
2017-Feb-19 02:33N 38°02' E 023°32'0 0.0
2017-Feb-19 01:33N 38°02' E 023°32'0 0.0
2017-Feb-19 00:33N 38°02' E 023°32'0 0.0
2017-Feb-18 23:33N 38°02' E 023°32'0 0.0
2017-Feb-18 22:33N 38°02' E 023°32'0 0.0
2017-Feb-18 21:33N 38°02' E 023°32'0 0.0
2017-Feb-18 20:33N 38°02' E 023°32'0 0.0
2017-Feb-18 19:33N 38°02' E 023°32'0 0.0
2017-Feb-18 18:33N 38°02' E 023°32'0 0.1
2017-Feb-18 17:33N 38°02' E 023°32'0 0.0
2017-Feb-18 16:33N 38°02' E 023°32'0 0.0
2017-Feb-18 15:33N 38°02' E 023°32'2 1.6
2017-Feb-18 14:34N 38°00' E 023°33'7 7.3
2017-Feb-18 13:33N 37°54' E 023°37'1010.4
2017-Feb-18 12:33N 37°45' E 023°43'50 9.3
2017-Feb-18 07:09N 37°35' E 024°46'35 0.9
2017-Feb-16 16:16N 37°34' E 024°02'7 9.0
2017-Feb-16 15:29N 37°37' E 023°54'9 9.2
2017-Feb-16 14:33N 37°40' E 023°44'10 9.7
2017-Feb-16 13:33N 37°48' E 023°38'9 9.2
2017-Feb-16 12:33N 37°57' E 023°35'5 5.1
2017-Feb-16 11:33N 38°02' E 023°32'0 0.0
2017-Feb-16 10:34N 38°02' E 023°32'0 0.0
2017-Feb-16 09:33N 38°02' E 023°32'0 0.0
2017-Feb-16 08:33N 38°02' E 023°32'0 0.0
2017-Feb-16 07:33N 38°02' E 023°32'2 2.4
2017-Feb-16 06:33N 38°02' E 023°35'0 0.4
2017-Feb-16 05:32N 38°02' E 023°36'0 0.0
2017-Feb-16 04:32N 38°02' E 023°36'0 0.0
2017-Feb-16 03:32N 38°02' E 023°36'0 0.0
2017-Feb-16 02:32N 38°02' E 023°36'0 0.0
2017-Feb-16 01:32N 38°02' E 023°36'0 0.0
2017-Feb-16 00:32N 38°02' E 023°36'0 0.0
2017-Feb-15 23:32N 38°02' E 023°36'0 0.0
2017-Feb-15 22:32N 38°02' E 023°36'0 0.0
2017-Feb-15 21:32N 38°02' E 023°36'0 0.0
2017-Feb-15 20:32N 38°02' E 023°36'0 0.0
2017-Feb-15 19:32N 38°02' E 023°36'0 0.0
2017-Feb-15 18:29N 38°02' E 023°36'0 0.0
2017-Feb-15 17:32N 38°02' E 023°36'0 0.0
2017-Feb-15 16:32N 38°02' E 023°36'3 2.7
2017-Feb-15 15:34N 38°01' E 023°32'8 8.1
2017-Feb-15 14:33N 37°54' E 023°37'9 9.5
2017-Feb-15 13:33N 37°46' E 023°42'10 9.4
2017-Feb-15 12:32N 37°37' E 023°48'  
Track history (hours):
 
Tides and Currents Weather Stations Pressure Air Temp Water Temp Dewpoint Dewpoint Depression Visibility Wind Speed Wind Dir Waves Ship Positions

Eviapetrol I

Last reported at 2017-Feb-20 04:30 UTC. Time now 2017-Feb-21 19:06 UTC.
Position N 37°20' E 023°37'.

Length 75 m; draft 5.2 m.

Type: Tanker. MMSI: 240285000.

Date/timePositionNaut miles runAvg speedWind from/ knotsBaromVisibWave heightAir tempDewpointWater temp
2017-Feb-20 04:30N 37°20' E 023°37'9 9.9
2017-Feb-20 03:33N 37°29' E 023°34'10 9.6
2017-Feb-20 02:33N 37°38' E 023°29'9 9.2
2017-Feb-20 01:33N 37°46' E 023°25'9 9.5
2017-Feb-20 00:33N 37°56' E 023°24'8 7.8
2017-Feb-19 23:33N 38°01' E 023°31'4 3.8
2017-Feb-19 22:33N 38°02' E 023°36'0 0.0
2017-Feb-19 21:33N 38°02' E 023°36'0 0.0
2017-Feb-19 20:30N 38°02' E 023°36'0 0.0
2017-Feb-19 19:33N 38°02' E 023°36'0 0.0
2017-Feb-19 18:33N 38°02' E 023°36'0 0.0
2017-Feb-19 17:33N 38°02' E 023°36'0 0.0
2017-Feb-19 16:33N 38°02' E 023°36'0 0.0
2017-Feb-19 15:33N 38°02' E 023°36'0 0.0
2017-Feb-19 14:30N 38°02' E 023°36'0 0.0
2017-Feb-19 13:33N 38°02' E 023°36'0 0.0
2017-Feb-19 12:33N 38°02' E 023°36'0 0.0
2017-Feb-19 11:33N 38°02' E 023°36'0 0.3
2017-Feb-19 10:33N 38°01' E 023°35'2 1.9
2017-Feb-19 09:33N 38°01' E 023°33'1 0.8
2017-Feb-19 08:33N 38°02' E 023°32'0 0.0
2017-Feb-19 07:33N 38°02' E 023°32'0 0.0
2017-Feb-19 06:33N 38°02' E 023°32'0 0.0
2017-Feb-19 05:33N 38°02' E 023°32'0 0.0
2017-Feb-19 04:33N 38°02' E 023°32'0 0.0
2017-Feb-19 03:33N 38°02' E 023°32'0 0.0
2017-Feb-19 02:33N 38°02' E 023°32'0 0.0
2017-Feb-19 01:33N 38°02' E 023°32'0 0.0
2017-Feb-19 00:33N 38°02' E 023°32'0 0.0
2017-Feb-18 23:33N 38°02' E 023°32'0 0.0
2017-Feb-18 22:33N 38°02' E 023°32'0 0.0
2017-Feb-18 21:33N 38°02' E 023°32'0 0.0
2017-Feb-18 20:33N 38°02' E 023°32'0 0.0
2017-Feb-18 19:33N 38°02' E 023°32'0 0.0
2017-Feb-18 18:33N 38°02' E 023°32'0 0.1
2017-Feb-18 17:33N 38°02' E 023°32'0 0.0
2017-Feb-18 16:33N 38°02' E 023°32'0 0.0
2017-Feb-18 15:33N 38°02' E 023°32'2 1.6
2017-Feb-18 14:34N 38°00' E 023°33'7 7.3
2017-Feb-18 13:33N 37°54' E 023°37'1010.4
2017-Feb-18 12:33N 37°45' E 023°43'50 9.3
2017-Feb-18 07:09N 37°35' E 024°46'35 0.9
2017-Feb-16 16:16N 37°34' E 024°02'7 9.0
2017-Feb-16 15:29N 37°37' E 023°54'9 9.2
2017-Feb-16 14:33N 37°40' E 023°44'10 9.7
2017-Feb-16 13:33N 37°48' E 023°38'9 9.2
2017-Feb-16 12:33N 37°57' E 023°35'5 5.1
2017-Feb-16 11:33N 38°02' E 023°32'0 0.0
2017-Feb-16 10:34N 38°02' E 023°32'0 0.0
2017-Feb-16 09:33N 38°02' E 023°32'0 0.0
2017-Feb-16 08:33N 38°02' E 023°32'0 0.0
2017-Feb-16 07:33N 38°02' E 023°32'2 2.4
2017-Feb-16 06:33N 38°02' E 023°35'0 0.4
2017-Feb-16 05:32N 38°02' E 023°36'0 0.0
2017-Feb-16 04:32N 38°02' E 023°36'0 0.0
2017-Feb-16 03:32N 38°02' E 023°36'0 0.0
2017-Feb-16 02:32N 38°02' E 023°36'0 0.0
2017-Feb-16 01:32N 38°02' E 023°36'0 0.0
2017-Feb-16 00:32N 38°02' E 023°36'0 0.0
2017-Feb-15 23:32N 38°02' E 023°36'0 0.0
2017-Feb-15 22:32N 38°02' E 023°36'0 0.0
2017-Feb-15 21:32N 38°02' E 023°36'0 0.0
2017-Feb-15 20:32N 38°02' E 023°36'0 0.0
2017-Feb-15 19:32N 38°02' E 023°36'0 0.0
2017-Feb-15 18:29N 38°02' E 023°36'0 0.0
2017-Feb-15 17:32N 38°02' E 023°36'0 0.0
2017-Feb-15 16:32N 38°02' E 023°36'3 2.7
2017-Feb-15 15:34N 38°01' E 023°32'8 8.1
2017-Feb-15 14:33N 37°54' E 023°37'9 9.5
2017-Feb-15 13:33N 37°46' E 023°42'10 9.4
2017-Feb-15 12:32N 37°37' E 023°48'  

Dump ship's entire track history